Accueil
METAR-TAF:

METAR-TAF

Aéroports :

Farnborough, Angleterre

latitude: 51-17N, longitude: 000-46W, altitude: 65 m

Observation

Le bulletin a été fait il y a 21 minutes, à 23:20 UTC
Vent 7 kt de sud-est
Température 7°C
Humidité 93%
Pression 1014 hPa
Visibilité: 4500 m
brume sèche

METAR: EGLF 252320Z AUTO 14007KT 4500 HZ FEW003/// BKN011/// OVC015/// 07/06 Q1014

Heure: 23:41 (23:41 UTC)

Prévision

Le bulletin a été fait il y a 6 heures et 40 minutes, à 17:01 UTC
Prévision valable du 25 à 18 UTC au 25 à 20 UTC
Vent 5 kt de sud-est
Visibilité 10 km ou plus
Nuages fragmentés à une hauteur de 600 ft
Evoluant progressivement
du 25 à 18 UTC au 25 à 20 UTC
Visibilité: 3000 m
Nuages fragmentés à une hauteur de 300 ft
brume
Probabilité 30% :
Temporairement
du 25 à 19 UTC au 25 à 20 UTC
Visibilité: 1400 m
bruine

TAF: EGLF 251701Z 2518/2520 14005KT 9999 BKN006 BECMG 2518/2520 3000 BR BKN003 PROB30 TEMPO 2519/2520 1400 DZ

Observations et prévisions météorologiques de plus de 4000 aéroports (messages METAR et TAF).

Les stations disponibles sont représentées par des disques jaunes et rouges sur la carte.

Passer la souris dessus pour voir le nom de la station.

Cliquer dessus pour voir les observations et prévisions météorologiques.

Pour changer de carte: cliquez sur les boutons verts avec une croix noire pour zoomer, sur le bouton vert avec un tiret pour effectuer un zoom arrière, ou sur les flèches vertes pour les cartes adjacentes.


METAR-TAF: